Time;durP1;ratioP1;P1;durP2;ratioP2;P2;SDS_P1;SDS_P2;PMS_P1;PMS_P2;Temp;Humidity;BMP_temperature;BMP_pressure;BME280_temperature;BME280_humidity;BME280_pressure;Samples;Min_cycle;Max_cycle;Signal;HPM_P1;HPM_P2
2023/12/04 00:01:48;;;;;;;20.80;12.73;;;;;;;;;;774805;180;819724;-67
2023/12/04 00:04:14;;;;;;;24.67;14.60;;;;;;;;;;778790;180;917131;-69
2023/12/04 00:06:40;;;;;;;19.57;12.10;;;;;;;;;;772806;180;921523;-69
2023/12/04 00:09:06;;;;;;;24.40;13.47;;;;;;;;;;770851;179;917208;-66
2023/12/04 00:11:32;;;;;;;19.05;12.45;;;;;;;;;;778265;180;914712;-69
2023/12/04 00:13:57;;;;;;;25.40;13.87;;;;;;;;;;769865;180;920612;-66
2023/12/04 00:16:23;;;;;;;20.80;12.17;;;;;;;;;;767343;178;913372;-69
2023/12/04 00:18:49;;;;;;;20.23;12.07;;;;;;;;;;777968;178;915436;-66
2023/12/04 00:21:15;;;;;;;21.43;12.83;;;;;;;;;;768497;177;919433;-69
2023/12/04 00:23:41;;;;;;;21.27;11.70;;;;;;;;;;764809;181;918976;-66
2023/12/04 00:26:07;;;;;;;26.80;13.83;;;;;;;;;;774093;181;918796;-66
2023/12/04 00:28:32;;;;;;;18.20;11.20;;;;;;;;;;770934;180;918469;-66
2023/12/04 00:30:58;;;;;;;18.37;12.50;;;;;;;;;;768930;180;918064;-66
2023/12/04 00:33:24;;;;;;;21.50;12.77;;;;;;;;;;767791;178;919709;-66
2023/12/04 00:35:50;;;;;;;18.70;12.90;;;;;;;;;;780242;180;915396;-70
2023/12/04 00:38:16;;;;;;;25.77;14.48;;;;;;;;;;777005;180;885221;-67
2023/12/04 00:40:42;;;;;;;22.00;15.70;;;;;;;;;;771805;180;919198;-66
2023/12/04 00:43:07;;;;;;;22.40;14.00;;;;;;;;;;773046;180;918098;-66
2023/12/04 00:45:33;;;;;;;25.07;14.53;;;;;;;;;;771518;179;919106;-70
2023/12/04 00:47:59;;;;;;;24.20;14.43;;;;;;;;;;774424;177;919027;-66
2023/12/04 00:50:25;;;;;;;26.20;15.35;;;;;;;;;;773062;179;918829;-67
2023/12/04 00:52:51;;;;;;;24.43;14.87;;;;;;;;;;776211;179;918822;-68
2023/12/04 00:55:17;;;;;;;24.30;13.97;;;;;;;;;;771039;179;918894;-69
2023/12/04 00:57:42;;;;;;;22.77;14.53;;;;;;;;;;766819;180;922377;-69
2023/12/04 01:00:09;;;;;;;29.00;16.17;;;;;;;;;;779480;180;919148;-66
2023/12/04 01:02:35;;;;;;;24.33;15.73;;;;;;;;;;760594;180;1575494;-69
2023/12/04 01:05:01;;;;;;;23.20;14.93;;;;;;;;;;770138;178;872344;-70
2023/12/04 01:07:27;;;;;;;25.77;16.23;;;;;;;;;;779668;178;919577;-66
2023/12/04 01:09:52;;;;;;;19.70;12.93;;;;;;;;;;771930;181;918828;-69
2023/12/04 01:12:18;;;;;;;22.80;15.10;;;;;;;;;;774593;178;925644;-69
2023/12/04 01:14:44;;;;;;;27.08;15.00;;;;;;;;;;779610;181;918532;-69
2023/12/04 01:17:10;;;;;;;21.97;13.37;;;;;;;;;;771671;180;918838;-68
2023/12/04 01:19:36;;;;;;;22.27;12.60;;;;;;;;;;773577;178;891577;-66
2023/12/04 01:22:02;;;;;;;23.10;13.80;;;;;;;;;;772756;181;917742;-67
2023/12/04 01:24:27;;;;;;;22.07;13.40;;;;;;;;;;778613;181;919343;-66
2023/12/04 01:26:53;;;;;;;18.67;13.00;;;;;;;;;;774544;178;847093;-69
2023/12/04 01:29:19;;;;;;;20.83;11.90;;;;;;;;;;771088;181;917446;-69
2023/12/04 01:31:45;;;;;;;21.90;12.80;;;;;;;;;;777068;178;912582;-70
2023/12/04 01:34:11;;;;;;;22.05;14.25;;;;;;;;;;773348;180;893327;-69
2023/12/04 01:36:37;;;;;;;21.67;12.37;;;;;;;;;;773210;180;918582;-68
2023/12/04 01:39:03;;;;;;;20.73;11.93;;;;;;;;;;776524;178;919906;-69
2023/12/04 01:41:28;;;;;;;23.67;13.50;;;;;;;;;;762475;181;923718;-67
2023/12/04 01:43:54;;;;;;;20.00;12.77;;;;;;;;;;770393;181;918606;-66
2023/12/04 01:46:21;;;;;;;22.70;11.63;;;;;;;;;;773091;181;917782;-67
2023/12/04 01:48:47;;;;;;;21.70;13.57;;;;;;;;;;774780;180;853675;-69
2023/12/04 01:51:12;;;;;;;21.87;13.47;;;;;;;;;;771408;177;918935;-66
2023/12/04 01:53:38;;;;;;;22.70;13.97;;;;;;;;;;764742;180;966137;-67
2023/12/04 01:56:04;;;;;;;22.00;13.10;;;;;;;;;;767791;178;916019;-70
2023/12/04 01:58:30;;;;;;;24.97;14.60;;;;;;;;;;772585;178;916315;-69
2023/12/04 02:00:56;;;;;;;23.00;14.10;;;;;;;;;;762384;183;819752;-69
2023/12/04 02:03:22;;;;;;;16.90;11.33;;;;;;;;;;769363;180;912716;-70
2023/12/04 02:05:47;;;;;;;22.90;13.70;;;;;;;;;;776804;178;817668;-69
2023/12/04 02:08:13;;;;;;;24.60;13.83;;;;;;;;;;778363;177;915976;-67
2023/12/04 02:10:39;;;;;;;29.03;13.77;;;;;;;;;;776676;180;905428;-67
2023/12/04 02:13:05;;;;;;;21.00;13.03;;;;;;;;;;775303;181;849696;-67
2023/12/04 02:15:31;;;;;;;23.03;13.40;;;;;;;;;;774176;179;839338;-67
2023/12/04 02:17:57;;;;;;;27.90;14.47;;;;;;;;;;777296;178;941959;-67
2023/12/04 02:20:23;;;;;;;25.03;14.30;;;;;;;;;;778816;178;915600;-67
2023/12/04 02:22:49;;;;;;;25.98;14.75;;;;;;;;;;769341;178;912361;-69
2023/12/04 02:25:15;;;;;;;22.60;13.73;;;;;;;;;;770273;178;928459;-68
2023/12/04 02:27:40;;;;;;;27.00;15.47;;;;;;;;;;773966;179;915305;-67
2023/12/04 02:30:07;;;;;;;25.33;15.80;;;;;;;;;;772233;177;913602;-66
2023/12/04 02:32:33;;;;;;;28.40;15.47;;;;;;;;;;773458;180;921539;-66
2023/12/04 02:34:58;;;;;;;21.07;14.03;;;;;;;;;;777540;178;919523;-67
2023/12/04 02:37:24;;;;;;;23.33;13.87;;;;;;;;;;768635;178;918593;-66
2023/12/04 02:39:52;;;;;;;18.93;13.90;;;;;;;;;;765982;177;915736;-71
2023/12/04 02:42:17;;;;;;;27.57;16.10;;;;;;;;;;765716;180;923127;-69
2023/12/04 02:44:42;;;;;;;26.00;14.27;;;;;;;;;;771922;180;916203;-69
2023/12/04 02:47:08;;;;;;;23.20;14.80;;;;;;;;;;772421;180;919077;-66
2023/12/04 02:49:34;;;;;;;24.70;13.70;;;;;;;;;;773251;180;918326;-66
2023/12/04 02:51:59;;;;;;;24.23;14.87;;;;;;;;;;773877;180;919018;-70
2023/12/04 02:54:25;;;;;;;24.07;14.90;;;;;;;;;;766669;180;924783;-69
2023/12/04 02:56:51;;;;;;;23.97;15.40;;;;;;;;;;771690;178;917480;-69
2023/12/04 02:59:17;;;;;;;26.17;16.53;;;;;;;;;;777344;180;907706;-69
2023/12/04 03:01:43;;;;;;;22.37;14.63;;;;;;;;;;769697;180;922415;-66
2023/12/04 03:04:09;;;;;;;27.93;15.70;;;;;;;;;;766605;180;917165;-69
2023/12/04 03:06:34;;;;;;;20.70;13.40;;;;;;;;;;774439;178;919502;-66
2023/12/04 03:09:00;;;;;;;24.53;15.43;;;;;;;;;;777204;177;815138;-66
2023/12/04 03:11:26;;;;;;;21.83;12.03;;;;;;;;;;773628;178;923146;-69
2023/12/04 03:13:52;;;;;;;24.53;13.47;;;;;;;;;;773439;176;1019644;-66
2023/12/04 03:16:18;;;;;;;28.30;14.07;;;;;;;;;;777218;180;920002;-67
2023/12/04 03:18:44;;;;;;;25.20;15.00;;;;;;;;;;776656;180;817134;-69
2023/12/04 03:21:10;;;;;;;28.52;15.02;;;;;;;;;;773515;179;916666;-66
2023/12/04 03:23:35;;;;;;;22.83;14.63;;;;;;;;;;773428;177;917664;-67
2023/12/04 03:26:01;;;;;;;30.80;16.03;;;;;;;;;;775015;181;917659;-68
2023/12/04 03:28:27;;;;;;;23.93;14.90;;;;;;;;;;776429;177;918112;-66
2023/12/04 03:30:53;;;;;;;24.00;13.93;;;;;;;;;;776865;178;916816;-70
2023/12/04 03:33:19;;;;;;;26.40;15.97;;;;;;;;;;771062;180;918554;-67
2023/12/04 03:35:45;;;;;;;21.07;13.93;;;;;;;;;;774349;180;914498;-66
2023/12/04 03:38:10;;;;;;;27.08;15.57;;;;;;;;;;768488;177;918953;-66
2023/12/04 03:40:36;;;;;;;21.90;13.03;;;;;;;;;;775796;180;918743;-65
2023/12/04 03:43:02;;;;;;;23.13;15.33;;;;;;;;;;773107;180;920198;-67
2023/12/04 03:45:28;;;;;;;24.67;13.30;;;;;;;;;;773722;180;817551;-69
2023/12/04 03:47:54;;;;;;;25.60;13.97;;;;;;;;;;779586;180;818307;-69
2023/12/04 03:50:20;;;;;;;22.40;14.43;;;;;;;;;;773370;180;923201;-68
2023/12/04 03:52:45;;;;;;;23.60;15.10;;;;;;;;;;772217;177;919188;-68
2023/12/04 03:55:11;;;;;;;23.93;14.30;;;;;;;;;;775972;180;926680;-68
2023/12/04 03:57:37;;;;;;;25.87;14.87;;;;;;;;;;773581;180;816243;-68
2023/12/04 04:00:04;;;;;;;22.87;13.70;;;;;;;;;;773102;181;969458;-67
2023/12/04 04:02:29;;;;;;;29.30;17.10;;;;;;;;;;771398;180;917874;-67
2023/12/04 04:04:55;;;;;;;21.47;14.20;;;;;;;;;;771439;178;919210;-66
2023/12/04 04:07:21;;;;;;;27.53;16.33;;;;;;;;;;761810;180;914070;-67
2023/12/04 04:09:47;;;;;;;34.00;20.83;;;;;;;;;;770464;177;1041751;-69
2023/12/04 04:12:13;;;;;;;27.63;16.20;;;;;;;;;;776868;180;910343;-68
2023/12/04 04:14:38;;;;;;;26.17;16.00;;;;;;;;;;768662;179;929238;-66
2023/12/04 04:17:04;;;;;;;27.10;14.90;;;;;;;;;;770007;181;916597;-69
2023/12/04 04:19:30;;;;;;;25.60;15.37;;;;;;;;;;777682;180;817819;-67
2023/12/04 04:21:56;;;;;;;23.10;14.75;;;;;;;;;;772560;178;977554;-69
2023/12/04 04:24:22;;;;;;;22.70;14.43;;;;;;;;;;774405;180;918801;-68
2023/12/04 04:26:48;;;;;;;22.30;14.33;;;;;;;;;;777188;180;918062;-66
2023/12/04 04:29:13;;;;;;;23.58;14.90;;;;;;;;;;774108;180;899412;-66
2023/12/04 04:31:39;;;;;;;23.57;13.20;;;;;;;;;;774765;178;919214;-66
2023/12/04 04:34:05;;;;;;;19.87;12.70;;;;;;;;;;774430;180;814621;-66
2023/12/04 04:36:31;;;;;;;28.57;14.63;;;;;;;;;;779926;180;907449;-67
2023/12/04 04:38:57;;;;;;;21.57;13.63;;;;;;;;;;769285;178;920277;-68
2023/12/04 04:41:23;;;;;;;25.80;13.30;;;;;;;;;;776092;180;915793;-66
2023/12/04 04:43:49;;;;;;;23.17;14.73;;;;;;;;;;779571;177;913452;-67
2023/12/04 04:46:15;;;;;;;21.17;13.53;;;;;;;;;;771432;180;918450;-69
2023/12/04 04:48:40;;;;;;;17.97;12.13;;;;;;;;;;773703;181;921218;-69
2023/12/04 04:51:06;;;;;;;22.47;12.87;;;;;;;;;;774856;178;812107;-68
2023/12/04 04:53:32;;;;;;;20.20;13.03;;;;;;;;;;775039;179;913667;-68
2023/12/04 04:55:58;;;;;;;23.57;14.80;;;;;;;;;;772634;177;1111118;-67
2023/12/04 04:58:24;;;;;;;28.10;15.20;;;;;;;;;;771031;177;815680;-67
2023/12/04 05:00:50;;;;;;;25.97;14.87;;;;;;;;;;770638;179;819171;-67
2023/12/04 05:03:16;;;;;;;21.80;12.80;;;;;;;;;;763800;178;922643;-68
2023/12/04 05:05:41;;;;;;;24.77;15.40;;;;;;;;;;766131;180;921653;-67
2023/12/04 05:08:07;;;;;;;27.13;16.13;;;;;;;;;;780514;178;925256;-69
2023/12/04 05:10:33;;;;;;;27.10;15.38;;;;;;;;;;777364;177;916062;-70
2023/12/04 05:12:59;;;;;;;27.17;14.63;;;;;;;;;;771067;180;919737;-67
2023/12/04 05:15:25;;;;;;;23.00;15.10;;;;;;;;;;774679;180;918645;-68
2023/12/04 05:17:51;;;;;;;24.17;14.00;;;;;;;;;;768105;180;919390;-68
2023/12/04 05:20:16;;;;;;;24.90;16.10;;;;;;;;;;768182;178;920912;-69
2023/12/04 05:22:42;;;;;;;25.20;13.30;;;;;;;;;;775173;180;917623;-70
2023/12/04 05:25:08;;;;;;;24.40;14.63;;;;;;;;;;775113;180;878724;-68
2023/12/04 05:27:34;;;;;;;22.07;14.67;;;;;;;;;;771889;180;917799;-67
2023/12/04 05:30:00;;;;;;;25.10;14.40;;;;;;;;;;772185;180;919863;-68
2023/12/04 05:32:26;;;;;;;23.27;16.27;;;;;;;;;;777537;180;918035;-67
2023/12/04 05:34:52;;;;;;;24.57;13.83;;;;;;;;;;777551;179;633519;-68
2023/12/04 05:37:17;;;;;;;20.03;13.20;;;;;;;;;;764784;182;815752;-68
2023/12/04 05:39:43;;;;;;;21.70;14.50;;;;;;;;;;776662;178;920942;-68
2023/12/04 05:42:09;;;;;;;25.73;15.80;;;;;;;;;;779441;177;627898;-68
2023/12/04 05:44:35;;;;;;;26.43;17.50;;;;;;;;;;761693;184;625483;-67
2023/12/04 05:47:01;;;;;;;24.03;16.23;;;;;;;;;;781223;180;639321;-67
2023/12/04 05:49:29;;;;;;;23.70;14.60;;;;;;;;;;775313;177;918892;-68
2023/12/04 05:51:52;;;;;;;25.35;15.75;;;;;;;;;;776557;180;627470;-68
2023/12/04 05:54:18;;;;;;;28.70;16.47;;;;;;;;;;777186;180;617345;-68
2023/12/04 05:56:44;;;;;;;24.73;16.27;;;;;;;;;;774996;178;619503;-69
2023/12/04 05:59:10;;;;;;;24.60;15.40;;;;;;;;;;775398;177;646307;-68
2023/12/04 06:01:36;;;;;;;27.23;16.70;;;;;;;;;;775241;180;623158;-68
2023/12/04 06:04:02;;;;;;;24.87;15.70;;;;;;;;;;774040;180;631237;-67
2023/12/04 06:06:27;;;;;;;29.87;17.20;;;;;;;;;;770326;180;917340;-68
2023/12/04 06:08:53;;;;;;;26.43;15.33;;;;;;;;;;773946;180;921223;-68
2023/12/04 06:11:19;;;;;;;26.60;16.23;;;;;;;;;;774949;180;920619;-67
2023/12/04 06:13:45;;;;;;;25.17;16.10;;;;;;;;;;771330;180;918959;-67
2023/12/04 06:16:11;;;;;;;29.70;16.63;;;;;;;;;;771952;180;817790;-68
2023/12/04 06:18:37;;;;;;;22.87;14.97;;;;;;;;;;766112;181;817985;-68
2023/12/04 06:21:03;;;;;;;25.67;16.67;;;;;;;;;;765726;181;816403;-67
2023/12/04 06:23:29;;;;;;;23.30;16.57;;;;;;;;;;771826;180;916773;-67
2023/12/04 06:25:55;;;;;;;20.37;14.30;;;;;;;;;;772704;180;918664;-67
2023/12/04 06:28:21;;;;;;;21.60;13.43;;;;;;;;;;776120;180;917373;-67
2023/12/04 06:30:47;;;;;;;24.40;14.63;;;;;;;;;;774546;180;918140;-67
2023/12/04 06:33:14;;;;;;;19.07;13.37;;;;;;;;;;771868;180;816255;-67
2023/12/04 06:35:40;;;;;;;23.47;15.50;;;;;;;;;;776344;180;915921;-67
2023/12/04 06:38:05;;;;;;;24.23;15.97;;;;;;;;;;772498;180;919119;-67
2023/12/04 06:40:32;;;;;;;25.63;15.60;;;;;;;;;;771012;178;922918;-67
2023/12/04 06:42:57;;;;;;;21.10;14.70;;;;;;;;;;772885;180;916521;-68
2023/12/04 06:45:24;;;;;;;25.23;15.47;;;;;;;;;;774309;180;829933;-67
2023/12/04 06:47:49;;;;;;;22.87;15.30;;;;;;;;;;771322;181;816026;-68
2023/12/04 06:50:16;;;;;;;21.87;14.67;;;;;;;;;;766939;177;1019833;-67
2023/12/04 06:52:41;;;;;;;24.70;14.50;;;;;;;;;;780477;180;895992;-68
2023/12/04 06:55:08;;;;;;;20.57;13.67;;;;;;;;;;774426;180;918740;-67
2023/12/04 06:57:33;;;;;;;25.13;14.43;;;;;;;;;;771761;180;1021285;-66
2023/12/04 06:59:59;;;;;;;18.63;13.93;;;;;;;;;;774995;180;918689;-67
2023/12/04 07:02:25;;;;;;;19.23;13.33;;;;;;;;;;764385;177;937288;-67
2023/12/04 07:04:51;;;;;;;25.47;14.30;;;;;;;;;;769296;178;918251;-68
2023/12/04 07:07:16;;;;;;;27.07;15.10;;;;;;;;;;778748;180;917352;-68
2023/12/04 07:09:42;;;;;;;21.90;14.00;;;;;;;;;;773342;180;908212;-67
2023/12/04 07:12:09;;;;;;;25.30;16.20;;;;;;;;;;773401;180;917739;-67
2023/12/04 07:14:35;;;;;;;22.63;14.20;;;;;;;;;;778271;178;625705;-68
2023/12/04 07:17:01;;;;;;;24.73;14.80;;;;;;;;;;787098;179;628288;-67
2023/12/04 07:19:27;;;;;;;25.10;15.80;;;;;;;;;;775301;177;832691;-67
2023/12/04 07:21:52;;;;;;;28.73;16.73;;;;;;;;;;775217;180;910370;-68
2023/12/04 07:24:18;;;;;;;28.60;15.43;;;;;;;;;;774622;180;914823;-67
2023/12/04 07:26:44;;;;;;;27.37;16.50;;;;;;;;;;774302;178;629047;-68
2023/12/04 07:29:10;;;;;;;28.50;16.48;;;;;;;;;;760755;181;635029;-68
2023/12/04 07:31:36;;;;;;;28.63;17.40;;;;;;;;;;779858;179;632964;-69
2023/12/04 07:34:02;;;;;;;36.90;22.23;;;;;;;;;;779672;177;612968;-69
2023/12/04 07:36:27;;;;;;;40.73;22.87;;;;;;;;;;773917;180;907971;-67
2023/12/04 07:38:53;;;;;;;39.95;22.10;;;;;;;;;;778320;179;919553;-67
2023/12/04 07:41:19;;;;;;;45.13;23.63;;;;;;;;;;774602;180;919453;-68
2023/12/04 07:43:45;;;;;;;49.67;24.93;;;;;;;;;;767077;179;918753;-68
2023/12/04 07:46:12;;;;;;;58.03;28.07;;;;;;;;;;764553;177;919188;-67
2023/12/04 07:48:37;;;;;;;79.63;33.13;;;;;;;;;;778657;178;941650;-68
2023/12/04 07:51:03;;;;;;;66.37;29.13;;;;;;;;;;768026;179;934912;-68
2023/12/04 07:53:29;;;;;;;80.23;26.50;;;;;;;;;;771248;178;907982;-70
2023/12/04 07:55:55;;;;;;;57.73;30.23;;;;;;;;;;771682;180;919617;-68
2023/12/04 07:58:21;;;;;;;88.73;25.63;;;;;;;;;;772979;181;818322;-68
2023/12/04 08:00:47;;;;;;;53.93;24.50;;;;;;;;;;774298;178;1017314;-68
2023/12/04 08:03:13;;;;;;;56.17;26.23;;;;;;;;;;770220;180;917835;-69
2023/12/04 08:05:39;;;;;;;44.20;25.67;;;;;;;;;;770177;181;919178;-68
2023/12/04 08:08:05;;;;;;;50.57;26.47;;;;;;;;;;773424;181;918595;-69
2023/12/04 08:10:31;;;;;;;61.03;30.23;;;;;;;;;;771370;180;817499;-68
2023/12/04 08:12:56;;;;;;;75.10;33.47;;;;;;;;;;778286;180;921728;-69
2023/12/04 08:15:22;;;;;;;61.40;30.80;;;;;;;;;;764518;182;845786;-70
2023/12/04 08:17:48;;;;;;;58.93;32.47;;;;;;;;;;766959;181;918484;-69
2023/12/04 08:20:14;;;;;;;62.07;31.30;;;;;;;;;;779881;178;916850;-69
2023/12/04 08:22:40;;;;;;;51.27;23.80;;;;;;;;;;773748;180;925482;-68
2023/12/04 08:25:06;;;;;;;57.87;32.33;;;;;;;;;;759934;183;918484;-69
2023/12/04 08:27:31;;;;;;;62.00;34.60;;;;;;;;;;773065;178;916687;-68
2023/12/04 08:29:57;;;;;;;53.47;30.90;;;;;;;;;;768161;180;924158;-70
2023/12/04 08:32:23;;;;;;;49.37;27.73;;;;;;;;;;774923;178;920694;-69
2023/12/04 08:34:49;;;;;;;56.40;27.07;;;;;;;;;;774635;180;914882;-67
2023/12/04 08:37:15;;;;;;;53.20;27.10;;;;;;;;;;773619;180;913577;-69
2023/12/04 08:39:41;;;;;;;58.70;30.70;;;;;;;;;;769988;181;919438;-68
2023/12/04 08:42:06;;;;;;;61.22;30.52;;;;;;;;;;772523;180;920825;-70
2023/12/04 08:44:32;;;;;;;75.03;36.13;;;;;;;;;;774135;181;816876;-69
2023/12/04 08:46:59;;;;;;;73.00;35.07;;;;;;;;;;773431;180;914943;-69
2023/12/04 08:49:24;;;;;;;71.20;34.80;;;;;;;;;;773174;177;918047;-70
2023/12/04 08:51:50;;;;;;;56.63;30.47;;;;;;;;;;777973;180;917443;-69
2023/12/04 08:54:16;;;;;;;61.97;31.33;;;;;;;;;;768328;181;919254;-68
2023/12/04 08:56:42;;;;;;;51.67;29.13;;;;;;;;;;769430;180;1022022;-70
2023/12/04 08:59:07;;;;;;;64.80;33.17;;;;;;;;;;774511;179;876020;-68
2023/12/04 09:01:33;;;;;;;43.40;23.70;;;;;;;;;;774447;178;923004;-69
2023/12/04 09:03:59;;;;;;;58.03;28.90;;;;;;;;;;770119;180;1013700;-69
2023/12/04 09:06:25;;;;;;;57.73;29.97;;;;;;;;;;773723;180;926569;-69
2023/12/04 09:08:51;;;;;;;54.00;27.73;;;;;;;;;;776780;180;940775;-68
2023/12/04 09:11:17;;;;;;;46.20;24.80;;;;;;;;;;769993;178;919615;-67
2023/12/04 09:13:42;;;;;;;37.10;20.20;;;;;;;;;;774893;176;916163;-68
2023/12/04 09:16:08;;;;;;;27.97;17.47;;;;;;;;;;779467;180;916646;-69
2023/12/04 09:18:34;;;;;;;32.28;20.60;;;;;;;;;;777622;180;905925;-68
2023/12/04 09:21:00;;;;;;;35.03;21.60;;;;;;;;;;775967;176;1032713;-67
2023/12/04 09:23:26;;;;;;;36.03;20.37;;;;;;;;;;765607;180;920373;-68
2023/12/04 09:25:52;;;;;;;38.13;20.60;;;;;;;;;;769061;181;880158;-70
2023/12/04 09:28:18;;;;;;;34.43;18.83;;;;;;;;;;774181;178;816735;-68
2023/12/04 09:30:44;;;;;;;41.87;20.83;;;;;;;;;;771344;180;924113;-68
2023/12/04 09:33:09;;;;;;;43.17;23.93;;;;;;;;;;770899;181;821098;-69
2023/12/04 09:35:35;;;;;;;54.97;28.83;;;;;;;;;;770077;180;918255;-69
2023/12/04 09:38:01;;;;;;;57.67;30.60;;;;;;;;;;773586;178;1021488;-67
2023/12/04 09:40:27;;;;;;;59.80;30.30;;;;;;;;;;777256;180;919151;-67
2023/12/04 09:42:53;;;;;;;43.33;25.47;;;;;;;;;;775436;180;818852;-68
2023/12/04 09:45:19;;;;;;;42.70;24.77;;;;;;;;;;772152;180;917954;-68
2023/12/04 09:47:44;;;;;;;42.23;26.30;;;;;;;;;;775449;180;1083505;-67
2023/12/04 09:50:10;;;;;;;42.83;23.90;;;;;;;;;;771179;180;919410;-68
2023/12/04 09:52:36;;;;;;;47.63;24.60;;;;;;;;;;771866;178;931575;-69
2023/12/04 09:55:02;;;;;;;42.13;22.00;;;;;;;;;;775237;180;919594;-68
2023/12/04 09:57:28;;;;;;;37.47;22.33;;;;;;;;;;770791;179;816635;-69
2023/12/04 09:59:54;;;;;;;43.20;26.50;;;;;;;;;;768829;180;921227;-67
2023/12/04 10:02:21;;;;;;;49.67;26.03;;;;;;;;;;771154;179;951934;-67
2023/12/04 10:04:45;;;;;;;38.03;22.37;;;;;;;;;;778070;180;821902;-68
2023/12/04 10:07:12;;;;;;;48.00;23.27;;;;;;;;;;774338;180;919295;-68
2023/12/04 10:09:37;;;;;;;50.73;25.80;;;;;;;;;;771627;180;923352;-67
2023/12/04 10:12:03;;;;;;;42.92;24.05;;;;;;;;;;779154;181;920285;-67
2023/12/04 10:14:30;;;;;;;47.92;24.60;;;;;;;;;;774027;180;919718;-68
2023/12/04 10:16:55;;;;;;;39.77;23.00;;;;;;;;;;759240;183;921642;-67
2023/12/04 10:19:22;;;;;;;39.23;22.60;;;;;;;;;;775739;180;815586;-68
2023/12/04 10:21:47;;;;;;;45.47;25.93;;;;;;;;;;771987;178;806697;-67
2023/12/04 10:24:13;;;;;;;46.77;24.03;;;;;;;;;;774581;179;917139;-67
2023/12/04 10:26:38;;;;;;;32.77;20.40;;;;;;;;;;774604;179;889683;-67
2023/12/04 10:29:05;;;;;;;40.47;23.47;;;;;;;;;;761525;181;820505;-69
2023/12/04 10:31:32;;;;;;;36.50;20.30;;;;;;;;;;773315;178;923089;-67
2023/12/04 10:33:58;;;;;;;33.43;20.70;;;;;;;;;;772168;177;921869;-67
2023/12/04 10:36:23;;;;;;;32.77;19.50;;;;;;;;;;778110;178;757179;-68
2023/12/04 10:39:04;;;;;;;32.83;19.73;;;;;;;;;;770766;177;917440;-68
2023/12/04 10:41:31;;;;;;;35.80;21.53;;;;;;;;;;772658;177;919358;-68
2023/12/04 10:43:56;;;;;;;34.20;19.13;;;;;;;;;;775255;179;782029;-66
2023/12/04 10:46:22;;;;;;;32.80;19.02;;;;;;;;;;776209;180;918001;-67
2023/12/04 10:48:48;;;;;;;28.70;16.60;;;;;;;;;;769975;181;881442;-67
2023/12/04 10:51:13;;;;;;;38.90;18.30;;;;;;;;;;771684;177;950125;-67
2023/12/04 10:53:42;;;;;;;33.63;17.40;;;;;;;;;;775218;177;883254;-67
2023/12/04 10:56:08;;;;;;;28.37;17.93;;;;;;;;;;776207;180;826038;-69
2023/12/04 10:58:35;;;;;;;33.47;18.37;;;;;;;;;;772168;180;814229;-67
2023/12/04 11:01:02;;;;;;;29.30;17.50;;;;;;;;;;772887;180;805765;-68
2023/12/04 11:03:33;;;;;;;30.30;18.20;;;;;;;;;;777060;180;715234;-67
2023/12/04 11:06:01;;;;;;;33.17;19.37;;;;;;;;;;773444;180;926097;-67
2023/12/04 11:08:27;;;;;;;32.80;19.00;;;;;;;;;;768742;177;919338;-66
2023/12/04 11:11:03;;;;;;;28.30;17.73;;;;;;;;;;757905;181;920820;-66
2023/12/04 11:13:30;;;;;;;33.10;19.30;;;;;;;;;;773190;181;816729;-67
2023/12/04 11:15:57;;;;;;;32.00;20.23;;;;;;;;;;770574;180;902157;-66
2023/12/04 11:18:23;;;;;;;33.05;18.33;;;;;;;;;;768032;179;922347;-67
2023/12/04 11:20:48;;;;;;;30.40;18.00;;;;;;;;;;770548;180;919700;-69
2023/12/04 11:23:15;;;;;;;31.70;20.30;;;;;;;;;;774795;179;908625;-68
2023/12/04 11:25:40;;;;;;;30.53;18.23;;;;;;;;;;773816;180;919266;-67
2023/12/04 11:28:06;;;;;;;28.47;17.37;;;;;;;;;;771353;180;922716;-67
2023/12/04 11:30:32;;;;;;;30.77;18.97;;;;;;;;;;780370;178;815701;-67
2023/12/04 11:32:58;;;;;;;31.00;18.50;;;;;;;;;;770148;180;773063;-66
2023/12/04 11:35:25;;;;;;;28.85;18.55;;;;;;;;;;777206;179;922649;-67
2023/12/04 11:37:52;;;;;;;31.20;17.40;;;;;;;;;;769091;180;909339;-67
2023/12/04 11:40:19;;;;;;;26.00;16.20;;;;;;;;;;772571;179;905742;-67
2023/12/04 11:42:46;;;;;;;31.43;18.97;;;;;;;;;;773838;178;921167;-67
2023/12/04 11:45:18;;;;;;;30.73;18.90;;;;;;;;;;773548;180;919270;-67
2023/12/04 11:47:48;;;;;;;27.80;18.10;;;;;;;;;;780930;180;816152;-66
2023/12/04 11:50:14;;;;;;;29.83;17.67;;;;;;;;;;773544;178;981486;-66
2023/12/04 11:52:40;;;;;;;23.90;16.60;;;;;;;;;;775551;177;901720;-70
2023/12/04 11:55:06;;;;;;;25.93;17.27;;;;;;;;;;772980;180;819922;-66
2023/12/04 11:57:32;;;;;;;25.83;15.70;;;;;;;;;;770496;181;919426;-66
2023/12/04 12:00:16;;;;;;;22.97;14.87;;;;;;;;;;769563;181;911861;-70
2023/12/04 12:02:41;;;;;;;29.23;17.17;;;;;;;;;;777034;178;809054;-66
2023/12/04 12:05:08;;;;;;;23.40;15.03;;;;;;;;;;773902;180;920526;-69
2023/12/04 12:07:34;;;;;;;25.53;16.23;;;;;;;;;;777189;180;914460;-69
2023/12/04 12:10:00;;;;;;;21.77;15.90;;;;;;;;;;772539;180;920945;-65
2023/12/04 12:12:26;;;;;;;24.90;15.77;;;;;;;;;;770244;178;924212;-65
2023/12/04 12:14:54;;;;;;;28.73;15.00;;;;;;;;;;775695;176;922255;-68
2023/12/04 12:17:21;;;;;;;24.33;16.83;;;;;;;;;;759702;181;919248;-69
2023/12/04 12:19:47;;;;;;;30.95;16.05;;;;;;;;;;766870;180;919003;-70
2023/12/04 12:22:12;;;;;;;32.63;18.10;;;;;;;;;;769686;180;914181;-65
2023/12/04 12:24:38;;;;;;;32.67;18.60;;;;;;;;;;776003;180;913045;-65
2023/12/04 12:27:04;;;;;;;24.87;15.98;;;;;;;;;;770935;180;924063;-68
2023/12/04 12:29:30;;;;;;;32.47;18.87;;;;;;;;;;771240;180;933692;-69
2023/12/04 12:31:56;;;;;;;29.50;18.03;;;;;;;;;;775508;180;918068;-69
2023/12/04 12:34:22;;;;;;;32.77;21.03;;;;;;;;;;771521;180;1126404;-69
2023/12/04 12:36:48;;;;;;;28.17;17.70;;;;;;;;;;774053;180;912659;-66
2023/12/04 12:39:15;;;;;;;31.40;18.13;;;;;;;;;;773722;180;829417;-69
2023/12/04 12:41:40;;;;;;;27.00;16.10;;;;;;;;;;770480;180;917692;-66
2023/12/04 12:44:05;;;;;;;30.63;19.73;;;;;;;;;;770564;180;922390;-65
2023/12/04 12:46:32;;;;;;;32.20;19.10;;;;;;;;;;770874;179;817332;-69
2023/12/04 12:48:58;;;;;;;32.20;17.93;;;;;;;;;;780769;178;615186;-65
2023/12/04 12:51:26;;;;;;;27.60;16.90;;;;;;;;;;775942;180;630812;-70
2023/12/04 12:53:52;;;;;;;24.30;15.13;;;;;;;;;;775425;178;869096;-70
2023/12/04 12:56:17;;;;;;;22.57;14.20;;;;;;;;;;777374;179;906920;-70
2023/12/04 12:58:43;;;;;;;24.87;16.00;;;;;;;;;;772593;180;818028;-71
2023/12/04 13:01:10;;;;;;;30.77;18.57;;;;;;;;;;774002;180;915512;-64
2023/12/04 13:03:37;;;;;;;30.45;18.20;;;;;;;;;;776053;180;624484;-65
2023/12/04 13:06:02;;;;;;;29.10;19.00;;;;;;;;;;771374;180;809968;-65
2023/12/04 13:08:28;;;;;;;30.90;17.67;;;;;;;;;;770792;180;887741;-65
2023/12/04 13:10:53;;;;;;;32.33;19.03;;;;;;;;;;776710;180;918919;-65
2023/12/04 13:13:19;;;;;;;32.80;20.80;;;;;;;;;;782802;180;628243;-69
2023/12/04 13:15:45;;;;;;;30.03;17.17;;;;;;;;;;775086;180;877370;-65
2023/12/04 13:18:11;;;;;;;31.47;21.13;;;;;;;;;;774976;179;812799;-70
2023/12/04 13:20:37;;;;;;;34.37;18.90;;;;;;;;;;763131;181;899330;-69
2023/12/04 13:23:03;;;;;;;33.10;19.43;;;;;;;;;;772210;178;814859;-70
2023/12/04 13:25:28;;;;;;;28.60;17.37;;;;;;;;;;774636;177;909710;-69
2023/12/04 13:27:54;;;;;;;32.43;20.10;;;;;;;;;;777224;180;854629;-69
2023/12/04 13:30:20;;;;;;;25.37;16.37;;;;;;;;;;773711;178;921168;-69
2023/12/04 13:32:46;;;;;;;30.40;18.40;;;;;;;;;;774955;180;918144;-66
2023/12/04 13:35:12;;;;;;;16.80;9.27;;;;;;;;;;775886;180;858688;-68
2023/12/04 13:37:39;;;;;;;12.77;7.77;;;;;;;;;;781393;180;821484;-68
2023/12/04 13:40:06;;;;;;;15.97;9.33;;;;;;;;;;772893;177;818903;-67
2023/12/04 13:45:02;;;;;;;15.47;7.80;;;;;;;;;;778954;177;920815;-68
2023/12/04 13:47:27;;;;;;;16.63;8.30;;;;;;;;;;771153;180;1123403;-67
2023/12/04 13:49:55;;;;;;;28.90;11.27;;;;;;;;;;771175;178;915646;-68
2023/12/04 13:52:22;;;;;;;19.13;9.50;;;;;;;;;;765324;180;916611;-66
2023/12/04 13:54:47;;;;;;;15.67;8.30;;;;;;;;;;768017;183;917780;-69
2023/12/04 13:57:18;;;;;;;17.50;10.30;;;;;;;;;;780037;178;814960;-68
2023/12/04 13:59:37;;;;;;;10.75;6.03;;;;;;;;;;780184;176;918362;-66